sensor_id;sensor_type;location;lat;lon;timestamp;pressure;altitude;pressure_sealevel;temperature;humidity
7662;BME280;30314;48.184;11.510;2023-12-20T00:01:02;95919.50;;;4.93;75.76
7662;BME280;30314;48.184;11.510;2023-12-20T00:03:28;95923.38;;;4.86;77.52
7662;BME280;30314;48.184;11.510;2023-12-20T00:06:06;95916.34;;;4.91;77.38
7662;BME280;30314;48.184;11.510;2023-12-20T00:08:33;95914.66;;;4.80;76.65
7662;BME280;30314;48.184;11.510;2023-12-20T00:11:00;95909.25;;;4.87;75.46
7662;BME280;30314;48.184;11.510;2023-12-20T00:13:26;95903.47;;;4.85;77.23
7662;BME280;30314;48.184;11.510;2023-12-20T00:15:53;95908.44;;;4.86;79.22
7662;BME280;30314;48.184;11.510;2023-12-20T00:18:19;95903.97;;;4.82;80.02
7662;BME280;30314;48.184;11.510;2023-12-20T00:20:46;95897.09;;;4.75;81.60
7662;BME280;30314;48.184;11.510;2023-12-20T00:23:12;95891.28;;;4.68;82.52
7662;BME280;30314;48.184;11.510;2023-12-20T00:25:39;95900.25;;;4.77;82.96
7662;BME280;30314;48.184;11.510;2023-12-20T00:28:06;95906.63;;;4.87;80.77
7662;BME280;30314;48.184;11.510;2023-12-20T00:30:32;95897.53;;;4.95;80.86
7662;BME280;30314;48.184;11.510;2023-12-20T00:32:59;95893.88;;;4.96;79.58
7662;BME280;30314;48.184;11.510;2023-12-20T00:35:26;95886.19;;;4.84;81.98
7662;BME280;30314;48.184;11.510;2023-12-20T00:37:53;95887.31;;;4.93;81.03
7662;BME280;30314;48.184;11.510;2023-12-20T00:40:19;95888.69;;;5.01;76.83
7662;BME280;30314;48.184;11.510;2023-12-20T00:42:47;95878.13;;;4.90;77.56
7662;BME280;30314;48.184;11.510;2023-12-20T00:45:14;95875.53;;;4.90;79.47
7662;BME280;30314;48.184;11.510;2023-12-20T00:47:40;95871.38;;;5.00;76.05
7662;BME280;30314;48.184;11.510;2023-12-20T00:50:08;95863.53;;;5.00;76.39
7662;BME280;30314;48.184;11.510;2023-12-20T00:52:35;95872.00;;;5.07;73.76
7662;BME280;30314;48.184;11.510;2023-12-20T00:55:03;95871.47;;;5.10;72.97
7662;BME280;30314;48.184;11.510;2023-12-20T00:57:30;95874.84;;;5.05;72.13
7662;BME280;30314;48.184;11.510;2023-12-20T00:59:57;95864.22;;;5.17;71.11
7662;BME280;30314;48.184;11.510;2023-12-20T01:02:24;95866.09;;;5.22;70.06
7662;BME280;30314;48.184;11.510;2023-12-20T01:04:51;95864.00;;;5.24;71.34
7662;BME280;30314;48.184;11.510;2023-12-20T01:07:17;95850.13;;;5.24;70.04
7662;BME280;30314;48.184;11.510;2023-12-20T01:09:44;95850.13;;;5.24;71.21
7662;BME280;30314;48.184;11.510;2023-12-20T01:12:11;95846.97;;;5.21;69.92
7662;BME280;30314;48.184;11.510;2023-12-20T01:14:37;95844.94;;;5.29;70.14
7662;BME280;30314;48.184;11.510;2023-12-20T01:17:05;95855.94;;;5.31;71.89
7662;BME280;30314;48.184;11.510;2023-12-20T01:19:32;95855.13;;;5.30;71.27
7662;BME280;30314;48.184;11.510;2023-12-20T01:21:59;95853.63;;;5.34;71.45
7662;BME280;30314;48.184;11.510;2023-12-20T01:24:25;95844.25;;;5.11;74.58
7662;BME280;30314;48.184;11.510;2023-12-20T01:26:52;95850.03;;;5.13;74.04
7662;BME280;30314;48.184;11.510;2023-12-20T01:29:18;95845.09;;;5.17;75.22
7662;BME280;30314;48.184;11.510;2023-12-20T01:31:45;95839.63;;;5.24;74.54
7662;BME280;30314;48.184;11.510;2023-12-20T01:34:12;95825.50;;;5.25;72.82
7662;BME280;30314;48.184;11.510;2023-12-20T01:36:39;95825.78;;;5.28;75.19
7662;BME280;30314;48.184;11.510;2023-12-20T01:39:05;95828.63;;;5.21;76.25
7662;BME280;30314;48.184;11.510;2023-12-20T01:41:49;95828.94;;;5.25;73.83
7662;BME280;30314;48.184;11.510;2023-12-20T01:44:16;95820.78;;;5.21;76.39
7662;BME280;30314;48.184;11.510;2023-12-20T01:46:43;95828.94;;;5.30;75.66
7662;BME280;30314;48.184;11.510;2023-12-20T01:49:09;95818.69;;;5.24;75.67
7662;BME280;30314;48.184;11.510;2023-12-20T01:51:36;95809.66;;;5.04;77.64
7662;BME280;30314;48.184;11.510;2023-12-20T01:54:03;95805.56;;;5.18;75.83
7662;BME280;30314;48.184;11.510;2023-12-20T01:56:31;95810.09;;;5.33;76.03
7662;BME280;30314;48.184;11.510;2023-12-20T01:58:58;95807.00;;;5.37;76.04
7662;BME280;30314;48.184;11.510;2023-12-20T02:01:27;95800.28;;;5.13;78.92
7662;BME280;30314;48.184;11.510;2023-12-20T02:03:55;95788.22;;;5.07;80.04
7662;BME280;30314;48.184;11.510;2023-12-20T02:06:24;95771.19;;;5.04;79.24
7662;BME280;30314;48.184;11.510;2023-12-20T02:08:54;95772.59;;;5.17;76.23
7662;BME280;30314;48.184;11.510;2023-12-20T02:11:21;95759.19;;;5.09;78.83
7662;BME280;30314;48.184;11.510;2023-12-20T02:13:47;95770.13;;;5.00;79.74
7662;BME280;30314;48.184;11.510;2023-12-20T02:16:14;95767.56;;;5.11;78.57
7662;BME280;30314;48.184;11.510;2023-12-20T02:18:43;95768.06;;;5.07;80.47
7662;BME280;30314;48.184;11.510;2023-12-20T02:21:10;95766.47;;;5.06;79.96
7662;BME280;30314;48.184;11.510;2023-12-20T02:23:37;95775.44;;;5.11;80.92
7662;BME280;30314;48.184;11.510;2023-12-20T02:26:04;95770.44;;;5.14;79.93
7662;BME280;30314;48.184;11.510;2023-12-20T02:28:31;95766.53;;;5.12;78.89
7662;BME280;30314;48.184;11.510;2023-12-20T02:30:58;95778.59;;;5.18;81.08
7662;BME280;30314;48.184;11.510;2023-12-20T02:33:25;95766.03;;;5.20;79.83
7662;BME280;30314;48.184;11.510;2023-12-20T02:35:52;95767.94;;;5.30;79.18
7662;BME280;30314;48.184;11.510;2023-12-20T02:38:19;95758.22;;;5.25;80.58
7662;BME280;30314;48.184;11.510;2023-12-20T02:40:45;95741.19;;;5.22;80.60
7662;BME280;30314;48.184;11.510;2023-12-20T02:43:15;95742.22;;;5.21;81.94
7662;BME280;30314;48.184;11.510;2023-12-20T02:45:43;95737.00;;;5.21;83.36
7662;BME280;30314;48.184;11.510;2023-12-20T02:48:09;95735.13;;;5.12;84.31
7662;BME280;30314;48.184;11.510;2023-12-20T02:50:36;95736.72;;;5.18;84.76
7662;BME280;30314;48.184;11.510;2023-12-20T02:53:03;95742.00;;;5.23;85.72
7662;BME280;30314;48.184;11.510;2023-12-20T02:55:29;95739.84;;;5.15;86.36
7662;BME280;30314;48.184;11.510;2023-12-20T02:57:56;95740.88;;;5.09;87.71
7662;BME280;30314;48.184;11.510;2023-12-20T03:00:23;95741.94;;;5.18;88.55
7662;BME280;30314;48.184;11.510;2023-12-20T03:02:49;95746.94;;;5.19;91.67
7662;BME280;30314;48.184;11.510;2023-12-20T03:05:16;95744.09;;;5.26;91.74
7662;BME280;30314;48.184;11.510;2023-12-20T03:07:43;95747.22;;;5.23;91.70
7662;BME280;30314;48.184;11.510;2023-12-20T03:10:10;95748.75;;;5.19;93.02
7662;BME280;30314;48.184;11.510;2023-12-20T03:12:48;95754.84;;;5.30;92.34
7662;BME280;30314;48.184;11.510;2023-12-20T03:15:15;95757.25;;;5.37;92.53
7662;BME280;30314;48.184;11.510;2023-12-20T03:17:42;95753.00;;;5.30;92.89
7662;BME280;30314;48.184;11.510;2023-12-20T03:20:09;95748.88;;;5.40;92.91
7662;BME280;30314;48.184;11.510;2023-12-20T03:22:36;95753.88;;;5.46;93.28
7662;BME280;30314;48.184;11.510;2023-12-20T03:25:02;95750.22;;;5.53;94.28
7662;BME280;30314;48.184;11.510;2023-12-20T03:27:29;95754.75;;;5.68;92.33
7662;BME280;30314;48.184;11.510;2023-12-20T03:29:56;95762.56;;;5.57;93.90
7662;BME280;30314;48.184;11.510;2023-12-20T03:32:22;95769.59;;;5.46;95.65
7662;BME280;30314;48.184;11.510;2023-12-20T03:34:49;95768.56;;;5.53;97.22
7662;BME280;30314;48.184;11.510;2023-12-20T03:37:15;95773.03;;;5.52;97.02
7662;BME280;30314;48.184;11.510;2023-12-20T03:39:42;95771.25;;;5.63;95.88
7662;BME280;30314;48.184;11.510;2023-12-20T03:42:09;95784.88;;;5.65;97.50
7662;BME280;30314;48.184;11.510;2023-12-20T03:44:38;95796.91;;;5.61;98.59
7662;BME280;30314;48.184;11.510;2023-12-20T03:47:06;95802.16;;;5.61;99.86
7662;BME280;30314;48.184;11.510;2023-12-20T03:49:33;95804.00;;;5.66;100.00
7662;BME280;30314;48.184;11.510;2023-12-20T03:51:59;95801.38;;;5.66;100.00
7662;BME280;30314;48.184;11.510;2023-12-20T03:54:26;95805.59;;;5.67;100.00
7662;BME280;30314;48.184;11.510;2023-12-20T03:56:52;95799.53;;;5.66;100.00
7662;BME280;30314;48.184;11.510;2023-12-20T03:59:19;95803.56;;;5.84;100.00
7662;BME280;30314;48.184;11.510;2023-12-20T04:01:46;95801.69;;;5.74;100.00
7662;BME280;30314;48.184;11.510;2023-12-20T04:04:13;95805.59;;;5.67;100.00
7662;BME280;30314;48.184;11.510;2023-12-20T04:06:40;95800.59;;;5.65;100.00
7662;BME280;30314;48.184;11.510;2023-12-20T04:09:07;95796.16;;;5.71;100.00
7662;BME280;30314;48.184;11.510;2023-12-20T04:11:36;95799.25;;;5.57;100.00
7662;BME280;30314;48.184;11.510;2023-12-20T04:14:04;95806.31;;;5.57;100.00
7662;BME280;30314;48.184;11.510;2023-12-20T04:16:34;95799.25;;;5.57;100.00
7662;BME280;30314;48.184;11.510;2023-12-20T04:19:01;95784.97;;;5.32;100.00
7662;BME280;30314;48.184;11.510;2023-12-20T04:21:28;95794.88;;;5.25;100.00
7662;BME280;30314;48.184;11.510;2023-12-20T04:23:54;95792.72;;;5.17;100.00
7662;BME280;30314;48.184;11.510;2023-12-20T04:26:21;95796.47;;;5.26;100.00
7662;BME280;30314;48.184;11.510;2023-12-20T04:28:47;95795.72;;;5.36;100.00
7662;BME280;30314;48.184;11.510;2023-12-20T04:31:14;95794.91;;;5.30;100.00
7662;BME280;30314;48.184;11.510;2023-12-20T04:33:41;95799.09;;;5.31;100.00
7662;BME280;30314;48.184;11.510;2023-12-20T04:36:08;95800.41;;;5.29;100.00
7662;BME280;30314;48.184;11.510;2023-12-20T04:38:36;95801.19;;;5.29;100.00
7662;BME280;30314;48.184;11.510;2023-12-20T04:41:03;95792.50;;;5.24;100.00
7662;BME280;30314;48.184;11.510;2023-12-20T04:43:29;95805.56;;;5.18;100.00
7662;BME280;30314;48.184;11.510;2023-12-20T04:45:56;95805.38;;;5.30;100.00
7662;BME280;30314;48.184;11.510;2023-12-20T04:48:22;95808.00;;;5.30;100.00
7662;BME280;30314;48.184;11.510;2023-12-20T04:50:49;95822.56;;;5.16;100.00
7662;BME280;30314;48.184;11.510;2023-12-20T04:53:16;95832.50;;;5.14;100.00
7662;BME280;30314;48.184;11.510;2023-12-20T04:55:42;95836.91;;;5.08;100.00
7662;BME280;30314;48.184;11.510;2023-12-20T04:58:09;95830.63;;;5.09;100.00
7662;BME280;30314;48.184;11.510;2023-12-20T05:00:35;95843.22;;;5.12;100.00
7662;BME280;30314;48.184;11.510;2023-12-20T05:03:02;95837.56;;;4.93;100.00
7662;BME280;30314;48.184;11.510;2023-12-20T05:05:29;95842.47;;;4.84;100.00
7662;BME280;30314;48.184;11.510;2023-12-20T05:07:55;95850.59;;;4.83;100.00
7662;BME280;30314;48.184;11.510;2023-12-20T05:10:22;95845.56;;;4.76;100.00
7662;BME280;30314;48.184;11.510;2023-12-20T05:12:49;95842.84;;;4.65;100.00
7662;BME280;30314;48.184;11.510;2023-12-20T05:15:15;95851.56;;;4.76;100.00
7662;BME280;30314;48.184;11.510;2023-12-20T05:17:42;95846.75;;;4.63;100.00
7662;BME280;30314;48.184;11.510;2023-12-20T05:20:09;95855.03;;;4.55;100.00
7662;BME280;30314;48.184;11.510;2023-12-20T05:22:35;95849.06;;;4.59;100.00
7662;BME280;30314;48.184;11.510;2023-12-20T05:25:02;95852.13;;;4.51;100.00
7662;BME280;30314;48.184;11.510;2023-12-20T05:27:29;95853.63;;;4.47;100.00
7662;BME280;30314;48.184;11.510;2023-12-20T05:29:55;95864.50;;;4.61;100.00
7662;BME280;30314;48.184;11.510;2023-12-20T05:32:24;95867.28;;;4.49;100.00
7662;BME280;30314;48.184;11.510;2023-12-20T05:34:51;95861.75;;;4.45;100.00
7662;BME280;30314;48.184;11.510;2023-12-20T05:37:18;95860.16;;;4.44;100.00
7662;BME280;30314;48.184;11.510;2023-12-20T05:39:45;95866.47;;;4.48;100.00
7662;BME280;30314;48.184;11.510;2023-12-20T05:42:12;95872.09;;;4.35;100.00
7662;BME280;30314;48.184;11.510;2023-12-20T05:44:38;95882.25;;;4.31;100.00
7662;BME280;30314;48.184;11.510;2023-12-20T05:47:05;95884.00;;;4.26;100.00
7662;BME280;30314;48.184;11.510;2023-12-20T05:49:32;95874.09;;;4.28;100.00
7662;BME280;30314;48.184;11.510;2023-12-20T05:51:58;95891.25;;;4.18;100.00
7662;BME280;30314;48.184;11.510;2023-12-20T05:54:25;95890.22;;;4.19;100.00
7662;BME280;30314;48.184;11.510;2023-12-20T05:56:54;95896.50;;;4.18;100.00
7662;BME280;30314;48.184;11.510;2023-12-20T05:59:21;95900.31;;;4.33;100.00
7662;BME280;30314;48.184;11.510;2023-12-20T06:01:47;95899.09;;;4.18;100.00
7662;BME280;30314;48.184;11.510;2023-12-20T06:04:14;95910.88;;;4.21;100.00
7662;BME280;30314;48.184;11.510;2023-12-20T06:06:42;95909.03;;;4.16;100.00
7662;BME280;30314;48.184;11.510;2023-12-20T06:09:09;95919.72;;;4.15;100.00
7662;BME280;30314;48.184;11.510;2023-12-20T06:11:36;95912.53;;;4.05;100.00
7662;BME280;30314;48.184;11.510;2023-12-20T06:14:02;95918.97;;;3.97;100.00
7662;BME280;30314;48.184;11.510;2023-12-20T06:16:29;95907.72;;;3.97;100.00
7662;BME280;30314;48.184;11.510;2023-12-20T06:18:55;95929.88;;;3.94;100.00
7662;BME280;30314;48.184;11.510;2023-12-20T06:21:22;95927.34;;;3.99;100.00
7662;BME280;30314;48.184;11.510;2023-12-20T06:23:49;95929.44;;;3.97;100.00
7662;BME280;30314;48.184;11.510;2023-12-20T06:26:15;95934.50;;;3.87;100.00
7662;BME280;30314;48.184;11.510;2023-12-20T06:28:42;95927.53;;;3.92;100.00
7662;BME280;30314;48.184;11.510;2023-12-20T06:31:09;95934.66;;;3.97;100.00
7662;BME280;30314;48.184;11.510;2023-12-20T06:33:36;95936.47;;;3.97;100.00
7662;BME280;30314;48.184;11.510;2023-12-20T06:36:02;95939.00;;;3.91;100.00
7662;BME280;30314;48.184;11.510;2023-12-20T06:38:29;95947.03;;;3.85;100.00
7662;BME280;30314;48.184;11.510;2023-12-20T06:40:56;95955.31;;;3.82;100.00
7662;BME280;30314;48.184;11.510;2023-12-20T06:43:24;95950.19;;;3.70;100.00
7662;BME280;30314;48.184;11.510;2023-12-20T06:46:09;95954.63;;;3.69;100.00
7662;BME280;30314;48.184;11.510;2023-12-20T06:48:36;95945.59;;;3.77;100.00
7662;BME280;30314;48.184;11.510;2023-12-20T06:51:02;95958.56;;;3.72;100.00
7662;BME280;30314;48.184;11.510;2023-12-20T06:53:29;95954.16;;;3.72;100.00
7662;BME280;30314;48.184;11.510;2023-12-20T06:55:56;95955.09;;;3.66;100.00
7662;BME280;30314;48.184;11.510;2023-12-20T06:58:23;95952.25;;;3.68;100.00
7662;BME280;30314;48.184;11.510;2023-12-20T07:00:50;95956.94;;;3.65;100.00
7662;BME280;30314;48.184;11.510;2023-12-20T07:03:18;95978.22;;;3.74;100.00
7662;BME280;30314;48.184;11.510;2023-12-20T07:05:44;95973.22;;;3.73;100.00
7662;BME280;30314;48.184;11.510;2023-12-20T07:08:11;95986.28;;;3.73;100.00
7662;BME280;30314;48.184;11.510;2023-12-20T07:10:40;95990.34;;;3.63;100.00
7662;BME280;30314;48.184;11.510;2023-12-20T07:13:06;95993.72;;;3.64;100.00
7662;BME280;30314;48.184;11.510;2023-12-20T07:15:34;95983.44;;;3.57;100.00
7662;BME280;30314;48.184;11.510;2023-12-20T07:18:02;95990.34;;;3.63;100.00
7662;BME280;30314;48.184;11.510;2023-12-20T07:20:29;96001.09;;;3.67;100.00
7662;BME280;30314;48.184;11.510;2023-12-20T07:22:55;96002.44;;;3.70;100.00
7662;BME280;30314;48.184;11.510;2023-12-20T07:25:22;95997.53;;;3.56;100.00
7662;BME280;30314;48.184;11.510;2023-12-20T07:27:48;95997.38;;;3.63;100.00
7662;BME280;30314;48.184;11.510;2023-12-20T07:30:15;96015.44;;;3.64;100.00
7662;BME280;30314;48.184;11.510;2023-12-20T07:32:42;96006.72;;;3.59;100.00
7662;BME280;30314;48.184;11.510;2023-12-20T07:35:09;96017.78;;;3.66;100.00
7662;BME280;30314;48.184;11.510;2023-12-20T07:37:35;96011.47;;;3.62;100.00
7662;BME280;30314;48.184;11.510;2023-12-20T07:40:02;96009.88;;;3.61;100.00
7662;BME280;30314;48.184;11.510;2023-12-20T07:42:30;96012.56;;;3.66;100.00
7662;BME280;30314;48.184;11.510;2023-12-20T07:44:56;96007.03;;;3.62;100.00
7662;BME280;30314;48.184;11.510;2023-12-20T07:47:23;96011.31;;;3.69;100.00
7662;BME280;30314;48.184;11.510;2023-12-20T07:49:49;96014.88;;;3.62;100.00
7662;BME280;30314;48.184;11.510;2023-12-20T07:52:18;96020.78;;;3.75;100.00
7662;BME280;30314;48.184;11.510;2023-12-20T07:54:45;96012.00;;;3.81;100.00
7662;BME280;30314;48.184;11.510;2023-12-20T07:57:12;96022.84;;;3.73;100.00
7662;BME280;30314;48.184;11.510;2023-12-20T07:59:39;96022.63;;;3.74;100.00
7662;BME280;30314;48.184;11.510;2023-12-20T08:02:06;96029.97;;;3.60;100.00
7662;BME280;30314;48.184;11.510;2023-12-20T08:04:33;96027.53;;;3.71;100.00
7662;BME280;30314;48.184;11.510;2023-12-20T08:06:59;96031.97;;;3.70;100.00
7662;BME280;30314;48.184;11.510;2023-12-20T08:09:26;96038.47;;;3.68;100.00
7662;BME280;30314;48.184;11.510;2023-12-20T08:11:53;96047.00;;;3.63;100.00
7662;BME280;30314;48.184;11.510;2023-12-20T08:14:20;96048.72;;;3.57;100.00
7662;BME280;30314;48.184;11.510;2023-12-20T08:16:46;96050.13;;;3.48;100.00
7662;BME280;30314;48.184;11.510;2023-12-20T08:19:13;96050.78;;;3.55;100.00
7662;BME280;30314;48.184;11.510;2023-12-20T08:21:40;96042.16;;;3.55;100.00
7662;BME280;30314;48.184;11.510;2023-12-20T08:24:08;96035.03;;;3.50;100.00
7662;BME280;30314;48.184;11.510;2023-12-20T08:26:34;96042.47;;;3.58;100.00
7662;BME280;30314;48.184;11.510;2023-12-20T08:29:01;96042.47;;;3.58;100.00
7662;BME280;30314;48.184;11.510;2023-12-20T08:31:28;96055.06;;;3.61;100.00
7662;BME280;30314;48.184;11.510;2023-12-20T08:33:55;96047.06;;;3.68;100.00
7662;BME280;30314;48.184;11.510;2023-12-20T08:36:22;96044.78;;;3.72;100.00
7662;BME280;30314;48.184;11.510;2023-12-20T08:38:50;96047.53;;;3.65;100.00
7662;BME280;30314;48.184;11.510;2023-12-20T08:41:17;96046.38;;;3.73;100.00
7662;BME280;30314;48.184;11.510;2023-12-20T08:43:44;96040.69;;;3.76;100.00
7662;BME280;30314;48.184;11.510;2023-12-20T08:46:11;96042.25;;;3.60;100.00
7662;BME280;30314;48.184;11.510;2023-12-20T08:48:38;96049.47;;;3.70;100.00
7662;BME280;30314;48.184;11.510;2023-12-20T08:51:05;96041.00;;;3.62;100.00
7662;BME280;30314;48.184;11.510;2023-12-20T08:53:35;96048.97;;;3.73;100.00
7662;BME280;30314;48.184;11.510;2023-12-20T08:56:02;96047.50;;;3.77;100.00
7662;BME280;30314;48.184;11.510;2023-12-20T08:58:29;96044.63;;;3.78;100.00
7662;BME280;30314;48.184;11.510;2023-12-20T09:00:56;96033.84;;;3.75;100.00
7662;BME280;30314;48.184;11.510;2023-12-20T09:03:24;96040.22;;;3.79;100.00
7662;BME280;30314;48.184;11.510;2023-12-20T09:05:50;96053.88;;;3.86;100.00
7662;BME280;30314;48.184;11.510;2023-12-20T09:08:17;96049.31;;;3.93;100.00
7662;BME280;30314;48.184;11.510;2023-12-20T09:10:44;96044.41;;;3.97;100.00
7662;BME280;30314;48.184;11.510;2023-12-20T09:13:11;96054.28;;;3.95;100.00
7662;BME280;30314;48.184;11.510;2023-12-20T09:15:38;96056.28;;;4.05;100.00
7662;BME280;30314;48.184;11.510;2023-12-20T09:18:05;96045.66;;;3.94;100.00
7662;BME280;30314;48.184;11.510;2023-12-20T09:20:31;96047.63;;;3.87;100.00
7662;BME280;30314;48.184;11.510;2023-12-20T09:22:59;96054.75;;;3.92;100.00
7662;BME280;30314;48.184;11.510;2023-12-20T09:25:25;96047.78;;;3.98;100.00
7662;BME280;30314;48.184;11.510;2023-12-20T09:27:53;96044.84;;;3.94;100.00
7662;BME280;30314;48.184;11.510;2023-12-20T09:30:19;96051.91;;;3.93;100.00
7662;BME280;30314;48.184;11.510;2023-12-20T09:32:54;96048.50;;;3.93;100.00
7662;BME280;30314;48.184;11.510;2023-12-20T09:35:20;96046.59;;;3.88;100.00
7662;BME280;30314;48.184;11.510;2023-12-20T09:37:47;96057.69;;;3.78;100.00
7662;BME280;30314;48.184;11.510;2023-12-20T09:40:18;96069.34;;;3.88;100.00
7662;BME280;30314;48.184;11.510;2023-12-20T09:42:48;96063.63;;;3.91;100.00
7662;BME280;30314;48.184;11.510;2023-12-20T09:45:20;96049.78;;;3.90;100.00
7662;BME280;30314;48.184;11.510;2023-12-20T09:47:54;96050.56;;;3.91;100.00
7662;BME280;30314;48.184;11.510;2023-12-20T09:50:23;96045.66;;;3.94;100.00
7662;BME280;30314;48.184;11.510;2023-12-20T09:52:52;96050.88;;;4.12;100.00
7662;BME280;30314;48.184;11.510;2023-12-20T09:55:20;96044.97;;;3.99;100.00
7662;BME280;30314;48.184;11.510;2023-12-20T09:57:47;96034.66;;;3.92;100.00
7662;BME280;30314;48.184;11.510;2023-12-20T10:00:15;96044.09;;;3.93;100.00
7662;BME280;30314;48.184;11.510;2023-12-20T10:02:56;96041.22;;;3.95;100.00
7662;BME280;30314;48.184;11.510;2023-12-20T10:05:30;96027.91;;;3.97;100.00
7662;BME280;30314;48.184;11.510;2023-12-20T10:07:58;96035.44;;;4.10;100.00
7662;BME280;30314;48.184;11.510;2023-12-20T10:10:26;96030.03;;;4.17;100.00
7662;BME280;30314;48.184;11.510;2023-12-20T10:13:09;96038.19;;;4.20;100.00
7662;BME280;30314;48.184;11.510;2023-12-20T10:15:37;96032.47;;;4.23;100.00
7662;BME280;30314;48.184;11.510;2023-12-20T10:18:04;96037.56;;;4.13;100.00
7662;BME280;30314;48.184;11.510;2023-12-20T10:20:31;96033.03;;;4.26;100.00
7662;BME280;30314;48.184;11.510;2023-12-20T10:22:59;96037.91;;;4.39;100.00
7662;BME280;30314;48.184;11.510;2023-12-20T10:25:26;96027.38;;;4.51;100.00
7662;BME280;30314;48.184;11.510;2023-12-20T10:28:13;96027.09;;;4.53;100.00
7662;BME280;30314;48.184;11.510;2023-12-20T10:30:41;96024.09;;;4.61;100.00
7662;BME280;30314;48.184;11.510;2023-12-20T10:33:09;96023.28;;;4.60;100.00
7662;BME280;30314;48.184;11.510;2023-12-20T10:35:40;96021.41;;;4.56;100.00
7662;BME280;30314;48.184;11.510;2023-12-20T10:38:12;96011.38;;;4.47;100.00
7662;BME280;30314;48.184;11.510;2023-12-20T10:40:40;96020.06;;;4.53;100.00
7662;BME280;30314;48.184;11.510;2023-12-20T10:43:08;96015.38;;;4.55;100.00
7662;BME280;30314;48.184;11.510;2023-12-20T10:45:35;96010.88;;;4.50;100.00
7662;BME280;30314;48.184;11.510;2023-12-20T10:48:02;96008.34;;;4.56;100.00
7662;BME280;30314;48.184;11.510;2023-12-20T10:50:30;96020.66;;;4.60;100.00
7662;BME280;30314;48.184;11.510;2023-12-20T10:52:58;96016.41;;;4.54;100.00
7662;BME280;30314;48.184;11.510;2023-12-20T10:55:25;96018.00;;;4.55;100.00
7662;BME280;30314;48.184;11.510;2023-12-20T10:58:01;96012.75;;;4.55;100.00
7662;BME280;30314;48.184;11.510;2023-12-20T11:00:29;96010.31;;;4.48;100.00
7662;BME280;30314;48.184;11.510;2023-12-20T11:03:00;96011.06;;;4.44;100.00
7662;BME280;30314;48.184;11.510;2023-12-20T11:05:52;96009.34;;;4.55;100.00
7662;BME280;30314;48.184;11.510;2023-12-20T11:08:36;96000.41;;;4.50;100.00
7662;BME280;30314;48.184;11.510;2023-12-20T11:11:20;96006.63;;;4.44;100.00
7662;BME280;30314;48.184;11.510;2023-12-20T11:14:07;96004.25;;;4.43;100.00
7662;BME280;30314;48.184;11.510;2023-12-20T11:16:38;96004.00;;;4.44;100.00
7662;BME280;30314;48.184;11.510;2023-12-20T11:19:17;95997.19;;;4.43;100.00
7662;BME280;30314;48.184;11.510;2023-12-20T11:21:46;96006.44;;;4.51;100.00
7662;BME280;30314;48.184;11.510;2023-12-20T11:24:13;95994.69;;;4.54;100.00
7662;BME280;30314;48.184;11.510;2023-12-20T11:26:46;95992.75;;;4.66;100.00
7662;BME280;30314;48.184;11.510;2023-12-20T11:29:32;95984.22;;;4.54;100.00
7662;BME280;30314;48.184;11.510;2023-12-20T11:32:01;95987.03;;;4.69;100.00
7662;BME280;30314;48.184;11.510;2023-12-20T11:34:32;95970.69;;;4.57;100.00
7662;BME280;30314;48.184;11.510;2023-12-20T11:37:02;95975.47;;;4.65;100.00
7662;BME280;30314;48.184;11.510;2023-12-20T11:39:30;95960.81;;;4.64;100.00
7662;BME280;30314;48.184;11.510;2023-12-20T11:42:04;95968.78;;;4.74;100.00
7662;BME280;30314;48.184;11.510;2023-12-20T11:44:30;95955.50;;;4.81;100.00
7662;BME280;30314;48.184;11.510;2023-12-20T11:46:57;95957.94;;;4.88;100.00
7662;BME280;30314;48.184;11.510;2023-12-20T11:49:24;95961.09;;;4.90;100.00
7662;BME280;30314;48.184;11.510;2023-12-20T11:51:51;95949.34;;;4.92;100.00
7662;BME280;30314;48.184;11.510;2023-12-20T11:54:18;95948.06;;;4.95;100.00
7662;BME280;30314;48.184;11.510;2023-12-20T11:56:46;95942.75;;;4.90;100.00
7662;BME280;30314;48.184;11.510;2023-12-20T11:59:12;95944.94;;;4.98;100.00
7662;BME280;30314;48.184;11.510;2023-12-20T12:01:50;95949.25;;;5.10;100.00
7662;BME280;30314;48.184;11.510;2023-12-20T12:04:17;95940.59;;;5.09;100.00
7662;BME280;30314;48.184;11.510;2023-12-20T12:06:44;95941.31;;;5.04;100.00
7662;BME280;30314;48.184;11.510;2023-12-20T12:09:11;95940.78;;;5.02;100.00
7662;BME280;30314;48.184;11.510;2023-12-20T12:11:38;95941.13;;;5.11;100.00
7662;BME280;30314;48.184;11.510;2023-12-20T12:14:05;95955.78;;;5.12;100.00
7662;BME280;30314;48.184;11.510;2023-12-20T12:16:31;95946.06;;;5.07;100.00
7662;BME280;30314;48.184;11.510;2023-12-20T12:18:59;95935.13;;;5.11;100.00
7662;BME280;30314;48.184;11.510;2023-12-20T12:21:27;95946.69;;;5.20;100.00
7662;BME280;30314;48.184;11.510;2023-12-20T12:24:08;95946.34;;;5.11;100.00
7662;BME280;30314;48.184;11.510;2023-12-20T12:26:36;95934.50;;;5.03;100.00
7662;BME280;30314;48.184;11.510;2023-12-20T12:29:02;95934.28;;;5.05;100.00
7662;BME280;30314;48.184;11.510;2023-12-20T12:31:30;95928.19;;;4.99;100.00
7662;BME280;30314;48.184;11.510;2023-12-20T12:33:56;95926.22;;;5.12;100.00
7662;BME280;30314;48.184;11.510;2023-12-20T12:36:23;95920.91;;;5.06;100.00
7662;BME280;30314;48.184;11.510;2023-12-20T12:38:50;95928.97;;;5.00;100.00
7662;BME280;30314;48.184;11.510;2023-12-20T12:41:17;95937.41;;;5.02;100.00
7662;BME280;30314;48.184;11.510;2023-12-20T12:43:43;95940.81;;;5.07;100.00
7662;BME280;30314;48.184;11.510;2023-12-20T12:46:10;95925.03;;;4.97;100.00
7662;BME280;30314;48.184;11.510;2023-12-20T12:48:37;95920.22;;;4.84;100.00
7662;BME280;30314;48.184;11.510;2023-12-20T12:51:04;95938.09;;;4.70;100.00
7662;BME280;30314;48.184;11.510;2023-12-20T12:53:31;95935.63;;;4.58;100.00
7662;BME280;30314;48.184;11.510;2023-12-20T12:55:57;95936.88;;;4.50;100.00
7662;BME280;30314;48.184;11.510;2023-12-20T12:58:24;95941.06;;;4.51;100.00
7662;BME280;30314;48.184;11.510;2023-12-20T13:00:52;95941.66;;;4.58;100.00
7662;BME280;30314;48.184;11.510;2023-12-20T13:03:19;95953.28;;;4.45;100.00
7662;BME280;30314;48.184;11.510;2023-12-20T13:05:46;95959.00;;;4.42;100.00